sensor_id;sensor_type;location;lat;lon;timestamp;temperature;humidity
24560;DHT22;12727;49.934;8.656;2023-02-13T00:01:16;6.40;99.90
24560;DHT22;12727;49.934;8.656;2023-02-13T00:03:42;6.30;99.90
24560;DHT22;12727;49.934;8.656;2023-02-13T00:06:07;6.20;99.90
24560;DHT22;12727;49.934;8.656;2023-02-13T00:08:33;6.20;99.90
24560;DHT22;12727;49.934;8.656;2023-02-13T00:10:59;6.20;99.90
24560;DHT22;12727;49.934;8.656;2023-02-13T00:13:25;6.10;99.90
24560;DHT22;12727;49.934;8.656;2023-02-13T00:15:58;6.00;99.90
24560;DHT22;12727;49.934;8.656;2023-02-13T00:18:25;5.90;99.90
24560;DHT22;12727;49.934;8.656;2023-02-13T00:21:01;5.80;99.90
24560;DHT22;12727;49.934;8.656;2023-02-13T00:23:29;5.70;99.90
24560;DHT22;12727;49.934;8.656;2023-02-13T00:25:55;5.60;99.90
24560;DHT22;12727;49.934;8.656;2023-02-13T00:28:21;5.50;99.90
24560;DHT22;12727;49.934;8.656;2023-02-13T00:30:46;5.20;99.90
24560;DHT22;12727;49.934;8.656;2023-02-13T00:33:12;5.20;99.90
24560;DHT22;12727;49.934;8.656;2023-02-13T00:35:37;5.20;99.90
24560;DHT22;12727;49.934;8.656;2023-02-13T00:38:03;5.20;99.90
24560;DHT22;12727;49.934;8.656;2023-02-13T00:40:28;5.10;99.90
24560;DHT22;12727;49.934;8.656;2023-02-13T00:42:54;5.00;99.90
24560;DHT22;12727;49.934;8.656;2023-02-13T00:45:19;4.90;99.90
24560;DHT22;12727;49.934;8.656;2023-02-13T00:47:45;5.10;99.90
24560;DHT22;12727;49.934;8.656;2023-02-13T00:50:10;5.30;99.90
24560;DHT22;12727;49.934;8.656;2023-02-13T00:52:36;5.50;99.90
24560;DHT22;12727;49.934;8.656;2023-02-13T00:55:02;5.50;99.90
24560;DHT22;12727;49.934;8.656;2023-02-13T00:57:27;5.40;99.90
24560;DHT22;12727;49.934;8.656;2023-02-13T00:59:55;5.40;99.90
24560;DHT22;12727;49.934;8.656;2023-02-13T01:02:21;5.50;99.90
24560;DHT22;12727;49.934;8.656;2023-02-13T01:04:46;5.50;99.90
24560;DHT22;12727;49.934;8.656;2023-02-13T01:07:12;5.40;99.90
24560;DHT22;12727;49.934;8.656;2023-02-13T01:09:38;5.40;99.90
24560;DHT22;12727;49.934;8.656;2023-02-13T01:12:03;5.20;99.90
24560;DHT22;12727;49.934;8.656;2023-02-13T01:14:29;4.90;99.90
24560;DHT22;12727;49.934;8.656;2023-02-13T01:16:55;4.70;99.90
24560;DHT22;12727;49.934;8.656;2023-02-13T01:19:20;4.50;99.90
24560;DHT22;12727;49.934;8.656;2023-02-13T01:21:46;4.50;99.90
24560;DHT22;12727;49.934;8.656;2023-02-13T01:24:11;4.50;99.90
24560;DHT22;12727;49.934;8.656;2023-02-13T01:26:37;4.70;99.90
24560;DHT22;12727;49.934;8.656;2023-02-13T01:29:02;4.70;99.90
24560;DHT22;12727;49.934;8.656;2023-02-13T01:31:28;4.50;99.90
24560;DHT22;12727;49.934;8.656;2023-02-13T01:33:57;4.20;99.90
24560;DHT22;12727;49.934;8.656;2023-02-13T01:36:23;4.00;99.90
24560;DHT22;12727;49.934;8.656;2023-02-13T01:38:55;3.90;99.90
24560;DHT22;12727;49.934;8.656;2023-02-13T01:41:22;4.00;99.90
24560;DHT22;12727;49.934;8.656;2023-02-13T01:43:57;4.10;99.90
24560;DHT22;12727;49.934;8.656;2023-02-13T01:46:36;4.00;99.90
24560;DHT22;12727;49.934;8.656;2023-02-13T01:49:19;3.80;99.90
24560;DHT22;12727;49.934;8.656;2023-02-13T01:51:46;3.70;99.90
24560;DHT22;12727;49.934;8.656;2023-02-13T01:54:16;3.60;99.90
24560;DHT22;12727;49.934;8.656;2023-02-13T01:56:47;3.60;99.90
24560;DHT22;12727;49.934;8.656;2023-02-13T01:59:21;3.90;99.90
24560;DHT22;12727;49.934;8.656;2023-02-13T02:01:49;4.10;99.90
24560;DHT22;12727;49.934;8.656;2023-02-13T02:04:19;4.30;99.90
24560;DHT22;12727;49.934;8.656;2023-02-13T02:06:50;4.30;99.90
24560;DHT22;12727;49.934;8.656;2023-02-13T02:09:21;3.90;99.90
24560;DHT22;12727;49.934;8.656;2023-02-13T02:12:03;3.70;99.90
24560;DHT22;12727;49.934;8.656;2023-02-13T02:14:30;3.50;99.90
24560;DHT22;12727;49.934;8.656;2023-02-13T02:16:56;3.30;99.90
24560;DHT22;12727;49.934;8.656;2023-02-13T02:24:56;3.00;99.90
24560;DHT22;12727;49.934;8.656;2023-02-13T02:33:47;2.40;99.90
24560;DHT22;12727;49.934;8.656;2023-02-13T02:36:34;2.10;99.90
24560;DHT22;12727;49.934;8.656;2023-02-13T02:39:28;1.90;99.90
24560;DHT22;12727;49.934;8.656;2023-02-13T02:44:30;1.80;99.90
24560;DHT22;12727;49.934;8.656;2023-02-13T02:50:38;1.70;99.90
24560;DHT22;12727;49.934;8.656;2023-02-13T02:55:29;1.70;99.90
24560;DHT22;12727;49.934;8.656;2023-02-13T03:00:48;1.60;99.90
24560;DHT22;12727;49.934;8.656;2023-02-13T03:03:33;1.60;99.90
24560;DHT22;12727;49.934;8.656;2023-02-13T03:06:26;1.60;99.90
24560;DHT22;12727;49.934;8.656;2023-02-13T03:08:55;1.60;99.90
24560;DHT22;12727;49.934;8.656;2023-02-13T03:11:41;1.60;99.90
24560;DHT22;12727;49.934;8.656;2023-02-13T03:14:27;1.70;99.90
24560;DHT22;12727;49.934;8.656;2023-02-13T03:16:55;2.10;99.90
24560;DHT22;12727;49.934;8.656;2023-02-13T03:23:05;2.10;99.90
24560;DHT22;12727;49.934;8.656;2023-02-13T03:28:30;2.20;99.90
24560;DHT22;12727;49.934;8.656;2023-02-13T03:31:33;2.20;99.90
24560;DHT22;12727;49.934;8.656;2023-02-13T03:34:16;2.20;99.90
24560;DHT22;12727;49.934;8.656;2023-02-13T03:39:59;1.70;99.90
24560;DHT22;12727;49.934;8.656;2023-02-13T03:42:36;1.30;99.90
24560;DHT22;12727;49.934;8.656;2023-02-13T03:45:13;1.10;99.90
24560;DHT22;12727;49.934;8.656;2023-02-13T03:48:01;1.10;99.90
24560;DHT22;12727;49.934;8.656;2023-02-13T03:50:37;1.10;99.90
24560;DHT22;12727;49.934;8.656;2023-02-13T03:53:10;1.00;99.90
24560;DHT22;12727;49.934;8.656;2023-02-13T03:55:44;1.10;99.90
24560;DHT22;12727;49.934;8.656;2023-02-13T03:58:36;1.20;99.90
24560;DHT22;12727;49.934;8.656;2023-02-13T04:01:28;1.20;99.90
24560;DHT22;12727;49.934;8.656;2023-02-13T04:06:31;1.20;99.90
24560;DHT22;12727;49.934;8.656;2023-02-13T04:08:59;1.20;99.90
24560;DHT22;12727;49.934;8.656;2023-02-13T04:11:28;1.20;99.90
24560;DHT22;12727;49.934;8.656;2023-02-13T04:14:00;1.10;99.90
24560;DHT22;12727;49.934;8.656;2023-02-13T04:16:41;1.10;99.90
24560;DHT22;12727;49.934;8.656;2023-02-13T04:19:09;1.20;99.90
24560;DHT22;12727;49.934;8.656;2023-02-13T04:21:37;1.20;99.90
24560;DHT22;12727;49.934;8.656;2023-02-13T04:24:04;1.10;99.90
24560;DHT22;12727;49.934;8.656;2023-02-13T04:26:39;1.10;99.90
24560;DHT22;12727;49.934;8.656;2023-02-13T04:29:05;1.10;99.90
24560;DHT22;12727;49.934;8.656;2023-02-13T04:31:31;1.20;99.90
24560;DHT22;12727;49.934;8.656;2023-02-13T04:33:57;1.20;99.90
24560;DHT22;12727;49.934;8.656;2023-02-13T04:36:23;1.30;99.90
24560;DHT22;12727;49.934;8.656;2023-02-13T04:38:49;1.40;99.90
24560;DHT22;12727;49.934;8.656;2023-02-13T04:41:14;1.60;99.90
24560;DHT22;12727;49.934;8.656;2023-02-13T04:43:41;1.60;99.90
24560;DHT22;12727;49.934;8.656;2023-02-13T04:46:06;1.60;99.90
24560;DHT22;12727;49.934;8.656;2023-02-13T04:48:32;1.60;99.90
24560;DHT22;12727;49.934;8.656;2023-02-13T04:50:57;1.60;99.90
24560;DHT22;12727;49.934;8.656;2023-02-13T04:53:23;1.60;99.90
24560;DHT22;12727;49.934;8.656;2023-02-13T04:55:49;1.50;99.90
24560;DHT22;12727;49.934;8.656;2023-02-13T04:58:14;1.60;99.90
24560;DHT22;12727;49.934;8.656;2023-02-13T05:00:40;1.60;99.90
24560;DHT22;12727;49.934;8.656;2023-02-13T05:03:07;1.90;99.90
24560;DHT22;12727;49.934;8.656;2023-02-13T05:05:33;2.20;99.90
24560;DHT22;12727;49.934;8.656;2023-02-13T05:07:59;2.30;99.90
24560;DHT22;12727;49.934;8.656;2023-02-13T05:10:25;2.40;99.90
24560;DHT22;12727;49.934;8.656;2023-02-13T05:12:51;2.50;99.90
24560;DHT22;12727;49.934;8.656;2023-02-13T05:15:17;2.50;99.90
24560;DHT22;12727;49.934;8.656;2023-02-13T05:17:43;2.50;99.90
24560;DHT22;12727;49.934;8.656;2023-02-13T05:20:10;2.30;99.90
24560;DHT22;12727;49.934;8.656;2023-02-13T05:22:35;2.10;99.90
24560;DHT22;12727;49.934;8.656;2023-02-13T05:25:41;2.20;99.90
24560;DHT22;12727;49.934;8.656;2023-02-13T05:28:07;2.20;99.90
24560;DHT22;12727;49.934;8.656;2023-02-13T05:30:52;2.20;99.90
24560;DHT22;12727;49.934;8.656;2023-02-13T05:33:18;2.10;99.90
24560;DHT22;12727;49.934;8.656;2023-02-13T05:35:44;2.00;99.90
24560;DHT22;12727;49.934;8.656;2023-02-13T05:38:09;1.80;99.90
24560;DHT22;12727;49.934;8.656;2023-02-13T05:40:35;1.60;99.90
24560;DHT22;12727;49.934;8.656;2023-02-13T05:43:00;1.50;99.90
24560;DHT22;12727;49.934;8.656;2023-02-13T05:45:26;1.50;99.90
24560;DHT22;12727;49.934;8.656;2023-02-13T05:47:51;1.50;99.90
24560;DHT22;12727;49.934;8.656;2023-02-13T05:50:17;1.70;99.90
24560;DHT22;12727;49.934;8.656;2023-02-13T05:52:42;1.90;99.90
24560;DHT22;12727;49.934;8.656;2023-02-13T05:55:08;1.70;99.90
24560;DHT22;12727;49.934;8.656;2023-02-13T05:57:34;1.50;99.90
24560;DHT22;12727;49.934;8.656;2023-02-13T05:59:59;1.40;99.90
24560;DHT22;12727;49.934;8.656;2023-02-13T06:02:25;1.40;99.90
24560;DHT22;12727;49.934;8.656;2023-02-13T06:04:50;1.50;99.90
24560;DHT22;12727;49.934;8.656;2023-02-13T06:07:16;1.70;99.90
24560;DHT22;12727;49.934;8.656;2023-02-13T06:09:41;2.00;99.90
24560;DHT22;12727;49.934;8.656;2023-02-13T06:12:07;2.10;99.90
24560;DHT22;12727;49.934;8.656;2023-02-13T06:14:33;2.10;99.90
24560;DHT22;12727;49.934;8.656;2023-02-13T06:16:59;2.10;99.90
24560;DHT22;12727;49.934;8.656;2023-02-13T06:19:25;2.00;99.90
24560;DHT22;12727;49.934;8.656;2023-02-13T06:21:50;2.10;99.90
24560;DHT22;12727;49.934;8.656;2023-02-13T06:24:16;2.10;99.90
24560;DHT22;12727;49.934;8.656;2023-02-13T06:26:42;1.90;99.90
24560;DHT22;12727;49.934;8.656;2023-02-13T06:29:07;2.20;99.90
24560;DHT22;12727;49.934;8.656;2023-02-13T06:31:34;2.00;99.90
24560;DHT22;12727;49.934;8.656;2023-02-13T06:34:00;1.70;99.90
24560;DHT22;12727;49.934;8.656;2023-02-13T06:36:25;1.60;99.90
24560;DHT22;12727;49.934;8.656;2023-02-13T06:38:51;1.70;99.90
24560;DHT22;12727;49.934;8.656;2023-02-13T06:41:16;1.80;99.90
24560;DHT22;12727;49.934;8.656;2023-02-13T06:43:42;1.90;99.90
24560;DHT22;12727;49.934;8.656;2023-02-13T06:46:08;2.00;99.90
24560;DHT22;12727;49.934;8.656;2023-02-13T06:48:33;2.10;99.90
24560;DHT22;12727;49.934;8.656;2023-02-13T06:51:00;2.20;99.90
24560;DHT22;12727;49.934;8.656;2023-02-13T06:53:28;2.20;99.90
24560;DHT22;12727;49.934;8.656;2023-02-13T06:55:55;2.30;99.90
24560;DHT22;12727;49.934;8.656;2023-02-13T06:58:22;2.40;99.90
24560;DHT22;12727;49.934;8.656;2023-02-13T07:00:48;2.30;99.90
24560;DHT22;12727;49.934;8.656;2023-02-13T07:03:14;2.40;99.90
24560;DHT22;12727;49.934;8.656;2023-02-13T07:05:41;2.40;99.90
24560;DHT22;12727;49.934;8.656;2023-02-13T07:08:08;2.50;99.90
24560;DHT22;12727;49.934;8.656;2023-02-13T07:10:36;2.50;99.90
24560;DHT22;12727;49.934;8.656;2023-02-13T07:13:03;2.60;99.90
24560;DHT22;12727;49.934;8.656;2023-02-13T07:15:28;2.70;99.90
24560;DHT22;12727;49.934;8.656;2023-02-13T07:17:55;2.70;99.90
24560;DHT22;12727;49.934;8.656;2023-02-13T07:20:21;2.70;99.90
24560;DHT22;12727;49.934;8.656;2023-02-13T07:22:47;2.80;99.90
24560;DHT22;12727;49.934;8.656;2023-02-13T07:25:12;2.90;99.90
24560;DHT22;12727;49.934;8.656;2023-02-13T07:27:38;3.10;99.90
24560;DHT22;12727;49.934;8.656;2023-02-13T07:30:04;3.60;99.90
24560;DHT22;12727;49.934;8.656;2023-02-13T07:32:30;4.10;99.90
24560;DHT22;12727;49.934;8.656;2023-02-13T07:34:55;4.50;99.90
24560;DHT22;12727;49.934;8.656;2023-02-13T07:37:21;4.80;99.90
24560;DHT22;12727;49.934;8.656;2023-02-13T07:39:47;5.10;99.90
24560;DHT22;12727;49.934;8.656;2023-02-13T07:42:12;5.40;99.90
24560;DHT22;12727;49.934;8.656;2023-02-13T07:44:38;5.70;99.90
24560;DHT22;12727;49.934;8.656;2023-02-13T07:47:03;6.00;99.90
24560;DHT22;12727;49.934;8.656;2023-02-13T07:49:29;6.10;99.90
24560;DHT22;12727;49.934;8.656;2023-02-13T07:51:56;6.30;99.90
24560;DHT22;12727;49.934;8.656;2023-02-13T07:54:22;6.50;99.90
24560;DHT22;12727;49.934;8.656;2023-02-13T07:56:47;6.90;99.90
24560;DHT22;12727;49.934;8.656;2023-02-13T07:59:13;6.90;99.90
24560;DHT22;12727;49.934;8.656;2023-02-13T08:01:38;7.00;99.90
24560;DHT22;12727;49.934;8.656;2023-02-13T08:04:04;7.20;99.90
24560;DHT22;12727;49.934;8.656;2023-02-13T08:06:29;7.30;99.90
24560;DHT22;12727;49.934;8.656;2023-02-13T08:08:55;7.40;99.90
24560;DHT22;12727;49.934;8.656;2023-02-13T08:11:39;7.60;99.90
24560;DHT22;12727;49.934;8.656;2023-02-13T08:14:25;7.70;99.90
24560;DHT22;12727;49.934;8.656;2023-02-13T08:16:52;7.80;99.90
24560;DHT22;12727;49.934;8.656;2023-02-13T08:19:18;7.90;99.90
24560;DHT22;12727;49.934;8.656;2023-02-13T08:21:44;8.00;99.90
24560;DHT22;12727;49.934;8.656;2023-02-13T08:24:11;8.20;99.90
24560;DHT22;12727;49.934;8.656;2023-02-13T08:26:37;7.90;99.90
24560;DHT22;12727;49.934;8.656;2023-02-13T08:29:04;8.20;99.90
24560;DHT22;12727;49.934;8.656;2023-02-13T08:31:30;8.60;99.90
24560;DHT22;12727;49.934;8.656;2023-02-13T08:33:56;8.60;99.90
24560;DHT22;12727;49.934;8.656;2023-02-13T08:36:22;8.60;99.90
24560;DHT22;12727;49.934;8.656;2023-02-13T08:38:48;8.60;99.90
24560;DHT22;12727;49.934;8.656;2023-02-13T08:41:14;9.00;99.90
24560;DHT22;12727;49.934;8.656;2023-02-13T08:43:42;9.60;99.90
24560;DHT22;12727;49.934;8.656;2023-02-13T08:46:08;9.80;99.90
24560;DHT22;12727;49.934;8.656;2023-02-13T08:48:34;9.50;99.90
24560;DHT22;12727;49.934;8.656;2023-02-13T08:50:59;9.70;99.90
24560;DHT22;12727;49.934;8.656;2023-02-13T08:53:29;10.00;99.90
24560;DHT22;12727;49.934;8.656;2023-02-13T08:55:56;10.10;99.90
24560;DHT22;12727;49.934;8.656;2023-02-13T08:58:22;10.30;99.90
24560;DHT22;12727;49.934;8.656;2023-02-13T09:00:48;10.60;99.90
24560;DHT22;12727;49.934;8.656;2023-02-13T09:03:14;10.90;99.90
24560;DHT22;12727;49.934;8.656;2023-02-13T09:05:39;11.50;99.90
24560;DHT22;12727;49.934;8.656;2023-02-13T09:08:05;11.50;98.10
24560;DHT22;12727;49.934;8.656;2023-02-13T09:10:33;11.30;99.80
24560;DHT22;12727;49.934;8.656;2023-02-13T09:12:59;11.50;99.50
24560;DHT22;12727;49.934;8.656;2023-02-13T09:15:25;12.30;98.90
24560;DHT22;12727;49.934;8.656;2023-02-13T09:17:51;12.30;97.40
24560;DHT22;12727;49.934;8.656;2023-02-13T09:20:17;12.50;97.80
24560;DHT22;12727;49.934;8.656;2023-02-13T09:22:42;12.40;96.20
24560;DHT22;12727;49.934;8.656;2023-02-13T09:25:09;12.70;96.90
24560;DHT22;12727;49.934;8.656;2023-02-13T09:27:35;12.80;93.90
24560;DHT22;12727;49.934;8.656;2023-02-13T09:30:06;12.70;95.00
24560;DHT22;12727;49.934;8.656;2023-02-13T09:32:34;13.50;94.20
24560;DHT22;12727;49.934;8.656;2023-02-13T09:34:59;13.60;91.70
24560;DHT22;12727;49.934;8.656;2023-02-13T09:37:25;13.70;92.10
24560;DHT22;12727;49.934;8.656;2023-02-13T09:39:51;13.90;91.70
24560;DHT22;12727;49.934;8.656;2023-02-13T09:42:21;13.40;89.20
24560;DHT22;12727;49.934;8.656;2023-02-13T09:44:52;13.00;89.10
24560;DHT22;12727;49.934;8.656;2023-02-13T09:47:29;13.40;91.30
24560;DHT22;12727;49.934;8.656;2023-02-13T09:52:36;13.70;89.10
24560;DHT22;12727;49.934;8.656;2023-02-13T09:55:16;13.90;87.00
24560;DHT22;12727;49.934;8.656;2023-02-13T10:00:39;14.00;86.60
24560;DHT22;12727;49.934;8.656;2023-02-13T10:03:20;14.40;84.60
24560;DHT22;12727;49.934;8.656;2023-02-13T10:06:10;14.60;87.10
24560;DHT22;12727;49.934;8.656;2023-02-13T10:12:04;16.10;81.80
24560;DHT22;12727;49.934;8.656;2023-02-13T10:17:33;16.00;73.30
24560;DHT22;12727;49.934;8.656;2023-02-13T10:20:04;15.40;79.10
24560;DHT22;12727;49.934;8.656;2023-02-13T10:22:34;15.80;78.30
24560;DHT22;12727;49.934;8.656;2023-02-13T10:25:06;15.90;77.80
24560;DHT22;12727;49.934;8.656;2023-02-13T10:27:43;17.00;77.00
24560;DHT22;12727;49.934;8.656;2023-02-13T10:32:54;17.40;72.40
24560;DHT22;12727;49.934;8.656;2023-02-13T10:35:36;17.10;70.60
24560;DHT22;12727;49.934;8.656;2023-02-13T10:38:17;17.20;71.60
24560;DHT22;12727;49.934;8.656;2023-02-13T10:46:43;16.90;71.20
24560;DHT22;12727;49.934;8.656;2023-02-13T10:49:32;16.40;69.30
24560;DHT22;12727;49.934;8.656;2023-02-13T10:52:35;16.70;71.80
24560;DHT22;12727;49.934;8.656;2023-02-13T10:55:47;16.40;69.50
24560;DHT22;12727;49.934;8.656;2023-02-13T10:58:31;16.10;71.70
24560;DHT22;12727;49.934;8.656;2023-02-13T11:03:30;15.70;70.80
24560;DHT22;12727;49.934;8.656;2023-02-13T11:05:57;15.30;72.50
24560;DHT22;12727;49.934;8.656;2023-02-13T11:10:51;15.20;71.90
24560;DHT22;12727;49.934;8.656;2023-02-13T11:13:24;15.40;72.30
24560;DHT22;12727;49.934;8.656;2023-02-13T11:15:59;15.90;72.40
24560;DHT22;12727;49.934;8.656;2023-02-13T11:18:27;16.00;69.60
24560;DHT22;12727;49.934;8.656;2023-02-13T11:26:10;15.60;72.30
24560;DHT22;12727;49.934;8.656;2023-02-13T11:28:43;15.90;70.60
24560;DHT22;12727;49.934;8.656;2023-02-13T11:33:49;15.50;70.70
24560;DHT22;12727;49.934;8.656;2023-02-13T11:36:22;15.40;70.30
24560;DHT22;12727;49.934;8.656;2023-02-13T11:39:02;15.60;71.10
24560;DHT22;12727;49.934;8.656;2023-02-13T11:41:30;15.60;69.50
24560;DHT22;12727;49.934;8.656;2023-02-13T11:44:01;15.10;72.90
24560;DHT22;12727;49.934;8.656;2023-02-13T11:46:30;14.10;74.30
24560;DHT22;12727;49.934;8.656;2023-02-13T11:49:16;13.00;78.00
24560;DHT22;12727;49.934;8.656;2023-02-13T11:51:45;12.20;80.90
24560;DHT22;12727;49.934;8.656;2023-02-13T11:54:34;11.80;82.40
24560;DHT22;12727;49.934;8.656;2023-02-13T11:59:48;11.20;84.00
24560;DHT22;12727;49.934;8.656;2023-02-13T12:02:28;11.20;84.80
24560;DHT22;12727;49.934;8.656;2023-02-13T12:05:20;11.30;85.10
24560;DHT22;12727;49.934;8.656;2023-02-13T12:07:47;11.10;85.60
24560;DHT22;12727;49.934;8.656;2023-02-13T12:10:24;11.10;86.20
24560;DHT22;12727;49.934;8.656;2023-02-13T12:12:55;11.10;86.70
24560;DHT22;12727;49.934;8.656;2023-02-13T12:15:27;11.10;85.80
24560;DHT22;12727;49.934;8.656;2023-02-13T12:20:38;10.90;86.40
24560;DHT22;12727;49.934;8.656;2023-02-13T12:23:16;11.00;87.40
24560;DHT22;12727;49.934;8.656;2023-02-13T12:34:07;11.20;86.50
24560;DHT22;12727;49.934;8.656;2023-02-13T12:41:48;11.00;87.50
24560;DHT22;12727;49.934;8.656;2023-02-13T12:47:18;11.30;88.50
24560;DHT22;12727;49.934;8.656;2023-02-13T13:01:08;11.40;84.10
24560;DHT22;12727;49.934;8.656;2023-02-13T13:04:13;11.30;84.60
24560;DHT22;12727;49.934;8.656;2023-02-13T13:17:11;11.20;84.90
24560;DHT22;12727;49.934;8.656;2023-02-13T13:22:59;11.30;85.60
24560;DHT22;12727;49.934;8.656;2023-02-13T13:25:39;11.40;86.20
24560;DHT22;12727;49.934;8.656;2023-02-13T13:28:22;11.50;84.80
24560;DHT22;12727;49.934;8.656;2023-02-13T13:30:49;11.30;85.40
24560;DHT22;12727;49.934;8.656;2023-02-13T13:35:54;11.30;86.50
24560;DHT22;12727;49.934;8.656;2023-02-13T13:38:38;11.30;86.50
24560;DHT22;12727;49.934;8.656;2023-02-13T13:43:40;11.40;85.50
24560;DHT22;12727;49.934;8.656;2023-02-13T13:46:10;11.40;85.70
24560;DHT22;12727;49.934;8.656;2023-02-13T13:48:59;11.30;86.20
24560;DHT22;12727;49.934;8.656;2023-02-13T13:51:30;11.50;86.80
24560;DHT22;12727;49.934;8.656;2023-02-13T13:54:17;11.50;86.00
24560;DHT22;12727;49.934;8.656;2023-02-13T13:57:07;11.50;86.10
24560;DHT22;12727;49.934;8.656;2023-02-13T14:07:38;11.40;86.10
24560;DHT22;12727;49.934;8.656;2023-02-13T14:36:43;11.60;85.60
24560;DHT22;12727;49.934;8.656;2023-02-13T14:39:30;11.60;85.20
24560;DHT22;12727;49.934;8.656;2023-02-13T14:41:58;11.50;85.20
24560;DHT22;12727;49.934;8.656;2023-02-13T14:44:48;11.40;85.50
24560;DHT22;12727;49.934;8.656;2023-02-13T14:47:39;11.40;85.30
24560;DHT22;12727;49.934;8.656;2023-02-13T14:50:15;11.40;85.50
24560;DHT22;12727;49.934;8.656;2023-02-13T14:52:44;11.40;86.00
24560;DHT22;12727;49.934;8.656;2023-02-13T14:58:03;11.40;86.10
24560;DHT22;12727;49.934;8.656;2023-02-13T15:00:42;11.30;86.00
24560;DHT22;12727;49.934;8.656;2023-02-13T15:03:28;11.30;86.00
24560;DHT22;12727;49.934;8.656;2023-02-13T15:05:58;11.20;85.80
24560;DHT22;12727;49.934;8.656;2023-02-13T15:08:47;11.20;86.30
24560;DHT22;12727;49.934;8.656;2023-02-13T15:16:46;11.10;86.30
24560;DHT22;12727;49.934;8.656;2023-02-13T15:19:15;11.10;86.20
24560;DHT22;12727;49.934;8.656;2023-02-13T15:21:48;11.10;86.50
24560;DHT22;12727;49.934;8.656;2023-02-13T15:24:14;11.10;87.00
24560;DHT22;12727;49.934;8.656;2023-02-13T15:26:40;11.20;87.10
24560;DHT22;12727;49.934;8.656;2023-02-13T15:29:18;11.10;86.60
24560;DHT22;12727;49.934;8.656;2023-02-13T15:31:46;11.10;86.40
24560;DHT22;12727;49.934;8.656;2023-02-13T15:34:38;11.10;86.70
24560;DHT22;12727;49.934;8.656;2023-02-13T15:37:20;11.00;87.00
24560;DHT22;12727;49.934;8.656;2023-02-13T15:39:45;11.00;87.30
24560;DHT22;12727;49.934;8.656;2023-02-13T15:42:11;11.00;87.60
24560;DHT22;12727;49.934;8.656;2023-02-13T15:44:38;10.90;87.90
24560;DHT22;12727;49.934;8.656;2023-02-13T15:47:16;10.80;88.10
24560;DHT22;12727;49.934;8.656;2023-02-13T15:49:43;10.80;88.50
24560;DHT22;12727;49.934;8.656;2023-02-13T15:54:48;10.60;89.30
24560;DHT22;12727;49.934;8.656;2023-02-13T15:57:13;10.60;89.60
24560;DHT22;12727;49.934;8.656;2023-02-13T15:59:40;10.60;89.70
24560;DHT22;12727;49.934;8.656;2023-02-13T16:02:18;10.50;90.00
24560;DHT22;12727;49.934;8.656;2023-02-13T16:04:46;10.40;90.20
24560;DHT22;12727;49.934;8.656;2023-02-13T16:07:13;10.40;90.40
24560;DHT22;12727;49.934;8.656;2023-02-13T16:09:40;10.30;90.50
24560;DHT22;12727;49.934;8.656;2023-02-13T16:12:06;10.20;90.60
24560;DHT22;12727;49.934;8.656;2023-02-13T16:14:47;10.10;90.70
24560;DHT22;12727;49.934;8.656;2023-02-13T16:17:54;10.10;91.00
24560;DHT22;12727;49.934;8.656;2023-02-13T16:27:43;9.80;91.50
24560;DHT22;12727;49.934;8.656;2023-02-13T16:30:30;9.70;91.60
24560;DHT22;12727;49.934;8.656;2023-02-13T16:41:02;9.40;92.40
24560;DHT22;12727;49.934;8.656;2023-02-13T16:44:19;9.30;92.60
24560;DHT22;12727;49.934;8.656;2023-02-13T16:46:39;9.20;92.90
24560;DHT22;12727;49.934;8.656;2023-02-13T16:56:53;8.90;93.70
24560;DHT22;12727;49.934;8.656;2023-02-13T16:59:53;8.80;93.90
24560;DHT22;12727;49.934;8.656;2023-02-13T17:05:12;8.70;94.40
24560;DHT22;12727;49.934;8.656;2023-02-13T17:07:44;8.60;94.80
24560;DHT22;12727;49.934;8.656;2023-02-13T17:10:33;8.50;94.90
24560;DHT22;12727;49.934;8.656;2023-02-13T17:13:01;8.40;95.10
24560;DHT22;12727;49.934;8.656;2023-02-13T17:15:29;8.30;95.70
24560;DHT22;12727;49.934;8.656;2023-02-13T17:17:55;8.20;95.80
24560;DHT22;12727;49.934;8.656;2023-02-13T17:20:24;8.20;96.20
24560;DHT22;12727;49.934;8.656;2023-02-13T17:22:52;8.10;96.50
24560;DHT22;12727;49.934;8.656;2023-02-13T17:25:24;8.10;96.80
24560;DHT22;12727;49.934;8.656;2023-02-13T17:27:55;8.00;97.10
24560;DHT22;12727;49.934;8.656;2023-02-13T17:30:26;8.00;98.00
24560;DHT22;12727;49.934;8.656;2023-02-13T17:33:04;7.90;98.10
24560;DHT22;12727;49.934;8.656;2023-02-13T17:35:30;7.90;98.70
24560;DHT22;12727;49.934;8.656;2023-02-13T17:37:55;7.80;99.30
24560;DHT22;12727;49.934;8.656;2023-02-13T17:40:25;7.80;99.90
24560;DHT22;12727;49.934;8.656;2023-02-13T17:42:55;7.80;99.90
24560;DHT22;12727;49.934;8.656;2023-02-13T17:45:23;7.70;99.90
24560;DHT22;12727;49.934;8.656;2023-02-13T17:47:49;7.70;99.90
24560;DHT22;12727;49.934;8.656;2023-02-13T17:50:15;7.60;99.90
24560;DHT22;12727;49.934;8.656;2023-02-13T17:52:42;7.50;99.90
24560;DHT22;12727;49.934;8.656;2023-02-13T17:55:20;7.50;99.90
24560;DHT22;12727;49.934;8.656;2023-02-13T17:57:47;7.50;99.90
24560;DHT22;12727;49.934;8.656;2023-02-13T18:00:13;7.40;99.90
24560;DHT22;12727;49.934;8.656;2023-02-13T18:02:40;7.40;99.90
24560;DHT22;12727;49.934;8.656;2023-02-13T18:05:10;7.30;99.90
24560;DHT22;12727;49.934;8.656;2023-02-13T18:07:36;7.30;99.90
24560;DHT22;12727;49.934;8.656;2023-02-13T18:10:06;7.20;99.90
24560;DHT22;12727;49.934;8.656;2023-02-13T18:12:32;7.20;99.90
24560;DHT22;12727;49.934;8.656;2023-02-13T18:14:57;7.10;99.90
24560;DHT22;12727;49.934;8.656;2023-02-13T18:17:23;7.10;99.90
24560;DHT22;12727;49.934;8.656;2023-02-13T18:19:48;7.10;99.90
24560;DHT22;12727;49.934;8.656;2023-02-13T18:22:15;7.10;99.90
24560;DHT22;12727;49.934;8.656;2023-02-13T18:24:41;7.10;99.90
24560;DHT22;12727;49.934;8.656;2023-02-13T18:27:08;7.10;99.90
24560;DHT22;12727;49.934;8.656;2023-02-13T18:29:35;7.00;99.90
24560;DHT22;12727;49.934;8.656;2023-02-13T18:32:03;7.00;99.90
24560;DHT22;12727;49.934;8.656;2023-02-13T18:34:28;7.00;99.90
24560;DHT22;12727;49.934;8.656;2023-02-13T18:36:54;7.00;99.90
24560;DHT22;12727;49.934;8.656;2023-02-13T18:39:20;6.80;99.90
24560;DHT22;12727;49.934;8.656;2023-02-13T18:41:45;6.70;99.90
24560;DHT22;12727;49.934;8.656;2023-02-13T18:44:11;6.60;99.90
24560;DHT22;12727;49.934;8.656;2023-02-13T18:46:36;6.50;99.90
24560;DHT22;12727;49.934;8.656;2023-02-13T18:49:02;6.30;99.90
24560;DHT22;12727;49.934;8.656;2023-02-13T18:51:28;6.20;99.90
24560;DHT22;12727;49.934;8.656;2023-02-13T18:53:54;6.20;99.90
24560;DHT22;12727;49.934;8.656;2023-02-13T18:56:19;6.10;99.90
24560;DHT22;12727;49.934;8.656;2023-02-13T18:58:47;6.10;99.90
24560;DHT22;12727;49.934;8.656;2023-02-13T19:01:16;6.10;99.90
24560;DHT22;12727;49.934;8.656;2023-02-13T19:03:45;6.10;99.90
24560;DHT22;12727;49.934;8.656;2023-02-13T19:06:13;6.00;99.90
24560;DHT22;12727;49.934;8.656;2023-02-13T19:08:40;6.10;99.90
24560;DHT22;12727;49.934;8.656;2023-02-13T19:11:08;5.90;99.90
24560;DHT22;12727;49.934;8.656;2023-02-13T19:13:34;5.90;99.90